地図

経路データ

SID SEASON NUMBER BASIN SUBBASIN NAME ISO_TIME NATURE LAT LON WMO_WIND WMO_PRES WMO_AGENCY TRACK_TYPE DIST2LAND LANDFALL IFLAG USA_AGENCY USA_ATCF_ID USA_LAT USA_LON USA_RECORD USA_STATUS USA_WIND USA_PRES USA_SSHS USA_R34_NE USA_R34_SE USA_R34_SW USA_R34_NW USA_R50_NE USA_R50_SE USA_R50_SW USA_R50_NW USA_R64_NE USA_R64_SE USA_R64_SW USA_R64_NW USA_POCI USA_ROCI USA_RMW USA_EYE TOKYO_LAT TOKYO_LON TOKYO_GRADE TOKYO_WIND TOKYO_PRES TOKYO_R50_DIR TOKYO_R50_LONG TOKYO_R50_SHORT TOKYO_R30_DIR TOKYO_R30_LONG TOKYO_R30_SHORT TOKYO_LAND CMA_LAT CMA_LON CMA_CAT CMA_WIND CMA_PRES HKO_LAT HKO_LON HKO_CAT HKO_WIND HKO_PRES NEWDELHI_LAT NEWDELHI_LON NEWDELHI_GRADE NEWDELHI_WIND NEWDELHI_PRES NEWDELHI_CI NEWDELHI_DP NEWDELHI_POCI REUNION_LAT REUNION_LON REUNION_TYPE REUNION_WIND REUNION_PRES REUNION_TNUM REUNION_CI REUNION_RMW REUNION_R34_NE REUNION_R34_SE REUNION_R34_SW REUNION_R34_NW REUNION_R50_NE REUNION_R50_SE REUNION_R50_SW REUNION_R50_NW REUNION_R64_NE REUNION_R64_SE REUNION_R64_SW REUNION_R64_NW BOM_LAT BOM_LON BOM_TYPE BOM_WIND BOM_PRES BOM_TNUM BOM_CI BOM_RMW BOM_R34_NE BOM_R34_SE BOM_R34_SW BOM_R34_NW BOM_R50_NE BOM_R50_SE BOM_R50_SW BOM_R50_NW BOM_R64_NE BOM_R64_SE BOM_R64_SW BOM_R64_NW BOM_ROCI BOM_POCI BOM_EYE BOM_POS_METHOD BOM_PRES_METHOD NADI_LAT NADI_LON NADI_CAT NADI_WIND NADI_PRES WELLINGTON_LAT WELLINGTON_LON WELLINGTON_WIND WELLINGTON_PRES DS824_LAT DS824_LON DS824_STAGE DS824_WIND DS824_PRES TD9636_LAT TD9636_LON TD9636_STAGE TD9636_WIND TD9636_PRES TD9635_LAT TD9635_LON TD9635_WIND TD9635_PRES TD9635_ROCI NEUMANN_LAT NEUMANN_LON NEUMANN_CLASS NEUMANN_WIND NEUMANN_PRES MLC_LAT MLC_LON MLC_CLASS MLC_WIND MLC_PRES USA_GUST BOM_GUST BOM_GUST_PER REUNION_GUST REUNION_GUST_PER USA_SEAHGT USA_SEARAD_NE USA_SEARAD_SE USA_SEARAD_SW USA_SEARAD_NW STORM_SPEED STORM_DIR
2006209N13130 2006 39 WP MM PRAPIROON 2006-07-28 00:00:00 NR 12.5000 130.000 main 487 456 O_____________ jtwc_wp WP072006 12.5000 130.000 DB 15 1004 -3 1008 170 50 7 285
2006209N13130 2006 39 WP MM PRAPIROON 2006-07-28 03:00:00 NR 12.5901 129.648 main 447 430 P_____________ WP072006 12.5901 129.648 DB 15 1005 -3 1007 160 50 8 308
2006209N13130 2006 39 WP MM PRAPIROON 2006-07-28 06:00:00 TS 12.9800 129.380 1004 tokyo main 432 414 OOO___________ jtwc_wp WP072006 12.7000 129.300 DB 15 1006 -3 1006 150 50 13.4000 129.500 2 1004 0 0 0 13.4000 129.500 1 23 1004 7 320
2006209N13130 2006 39 WP MM PRAPIROON 2006-07-28 09:00:00 TS 13.1525 129.161 main 416 399 PPP___________ WP072006 12.8425 128.970 DB 15 1006 -3 1006 150 50 13.4625 129.353 2 1004 0 0 13.4625 129.353 1 23 1004 5 311
2006209N13130 2006 39 WP MM PRAPIROON 2006-07-28 12:00:00 TS 13.3000 129.000 1004 tokyo main 399 388 OOO___________ jtwc_wp WP072006 13.0000 128.700 DB 15 1006 -3 1006 150 50 13.5000 129.200 2 1004 0 0 0 13.5000 129.200 1 23 1004 4 309
2006209N13130 2006 39 WP MM PRAPIROON 2006-07-28 15:00:00 TS 13.3833 128.868 main 392 372 PPP___________ WP072006 13.1499 128.520 DB 15 1005 -3 1006 150 50 13.5000 129.042 2 1004 0 0 13.5000 129.042 1 23 1004 3 297
2006209N13130 2006 39 WP MM PRAPIROON 2006-07-28 18:00:00 TS 13.4333 128.733 1004 tokyo main 372 366 OOO___________ jtwc_wp WP072006 13.3000 128.400 DB 15 1004 -3 1006 150 50 13.5000 128.900 2 1004 0 0 0 13.5000 128.900 1 23 1004 3 299
2006209N13130 2006 39 WP MM PRAPIROON 2006-07-28 21:00:00 TS 13.5116 128.631 main 366 361 PPP___________ WP072006 13.4500 128.292 DB 15 1004 -3 1006 150 50 13.5425 128.800 2 1004 0 0 13.5425 128.800 1 23 1004 3 311
2006209N13130 2006 39 WP MM PRAPIROON 2006-07-29 00:00:00 TS 13.6000 128.533 1004 tokyo main 361 356 OOO___________ jtwc_wp WP072006 13.6000 128.200 DB 15 1004 -3 1006 150 50 13.6000 128.700 2 1004 0 0 0 13.6000 128.700 1 23 1004 3 310
2006209N13130 2006 39 WP MM PRAPIROON 2006-07-29 03:00:00 TS 13.6833 128.417 main 356 346 PPP___________ WP072006 13.7500 128.107 DB 15 1004 -3 1006 150 50 13.6500 128.572 2 1004 0 0 13.6500 128.572 1 23 1004 3 303
2006209N13130 2006 39 WP MM PRAPIROON 2006-07-29 06:00:00 TS 13.7667 128.267 1004 tokyo main 352 333 OOO___________ jtwc_wp WP072006 13.9000 128.000 DB 15 1004 -3 1007 150 50 13.7000 128.400 2 1004 0 0 0 13.7000 128.400 1 23 1004 4 296
2006209N13130 2006 39 WP MM PRAPIROON 2006-07-29 09:00:00 TS 13.8525 128.065 main 340 313 PPP___________ WP072006 14.0574 127.880 DB 15 1004 -3 1007 150 50 13.7500 128.158 2 1004 0 0 13.7500 128.158 1 23 1004 5 292
2006209N13130 2006 39 WP MM PRAPIROON 2006-07-29 12:00:00 TS 13.9333 127.833 1004 tokyo main 313 303 OOO___________ jtwc_wp WP072006 14.2000 127.700 DB 15 1004 -3 1007 150 50 13.8000 127.900 2 1004 0 0 0 13.8000 127.900 1 23 1004 5 289
2006209N13130 2006 39 WP MM PRAPIROON 2006-07-29 15:00:00 TS 14.0025 127.610 main 303 288 PPP___________ WP072006 14.3225 127.430 DB 15 1004 -3 1007 170 50 13.8424 127.700 2 1004 0 0 13.8424 127.700 1 23 1004 5 286
2006209N13130 2006 39 WP MM PRAPIROON 2006-07-29 18:00:00 TS 14.0667 127.367 1004 tokyo main 296 272 OOO___________ jtwc_wp WP072006 14.4000 127.100 DB 15 1004 -3 1008 190 50 13.9000 127.500 2 1004 0 0 0 13.9000 127.500 1 23 1004 5 285
2006209N13130 2006 39 WP MM PRAPIROON 2006-07-29 21:00:00 TS 14.1333 127.101 main 272 257 PPP___________ WP072006 14.4150 126.757 DB 17 1004 -3 1008 190 50 13.9924 127.272 2 1004 0 0 13.9924 127.272 1 23 1004 6 284
2006209N13130 2006 39 WP MM PRAPIROON 2006-07-30 00:00:00 TS 14.2000 126.800 1004 tokyo main 257 229 OOO___________ jtwc_wp WP072006 14.4000 126.400 DB 20 1004 -3 1008 190 50 14.1000 127.000 2 1004 0 0 0 14.1000 127.000 1 23 1004 6 282
2006209N13130 2006 39 WP MM PRAPIROON 2006-07-30 03:00:00 TS 14.2591 126.475 main 230 188 PPP___________ WP072006 14.3924 126.050 DB 20 1004 -3 1008 190 45 14.1924 126.687 2 1004 0 0 14.1924 126.687 1 23 1004 7 281
2006209N13130 2006 39 WP MM PRAPIROON 2006-07-30 06:00:00 TS 14.3333 126.100 1004 tokyo main 188 151 OOO___________ jtwc_wp WP072006 14.4000 125.700 DB 20 1004 -3 1008 190 40 14.3000 126.300 2 1004 0 0 0 14.3000 126.300 1 23 1004 8 282
2006209N13130 2006 39 WP MM PRAPIROON 2006-07-30 09:00:00 TS 14.4300 125.672 main 151 116 PPP___________ WP072006 14.4198 125.372 DB 20 1004 -3 1008 190 40 14.4350 125.822 2 1004 0 0 14.4350 125.822 1 23 1004 9 285
2006209N13130 2006 39 WP MM PRAPIROON 2006-07-30 12:00:00 TS 14.5667 125.200 1004 tokyo main 116 89 OOO___________ jtwc_wp WP072006 14.5000 125.000 DB 20 1004 -3 1008 190 40 14.6000 125.300 2 1004 0 0 0 14.6000 125.300 1 23 1004 10 289
2006209N13130 2006 39 WP MM PRAPIROON 2006-07-30 15:00:00 TS 14.7441 124.702 main 89 89 PPP___________ WP072006 14.6626 124.508 DB 20 1004 -3 1008 185 40 14.7849 124.800 2 1004 0 0 14.7849 124.800 1 23 1004 10 292
2006209N13130 2006 39 WP MM PRAPIROON 2006-07-30 18:00:00 TS 14.9667 124.200 1004 tokyo main 111 111 OOO___________ jtwc_wp WP072006 14.9000 124.000 DB 20 1004 -3 1008 180 40 15.0000 124.300 2 1004 0 0 0 15.0000 124.300 1 23 1004 10 296
2006209N13130 2006 39 WP MM PRAPIROON 2006-07-30 21:00:00 TS 15.2082 123.731 main 141 139 PPP___________ WP072006 15.1699 123.577 DB 22 1003 -3 1007 160 40 15.2273 123.807 2 1004 0 0 15.2273 123.807 1 26 1002 10 301
2006209N13130 2006 39 WP MM PRAPIROON 2006-07-31 00:00:00 TS 15.5000 123.267 1004 tokyo main 141 72 OOO___________ jtwc_wp WP072006 15.5000 123.200 TD 25 1002 -1 1007 140 40 15.5000 123.300 2 1004 0 0 0 15.5000 123.300 1 29 1000 11 307
2006209N13130 2006 39 WP MM PRAPIROON 2006-07-31 03:00:00 TS 15.8790 122.796 main 72 21 PPP___________ WP072006 15.9222 122.872 TD 27 1001 -1 1006 120 40 15.8574 122.758 2 1003 0 0 15.8574 122.758 1 29 1000 12 309
2006209N13130 2006 39 WP MM PRAPIROON 2006-07-31 06:00:00 TS 16.2385 122.331 1002 tokyo main 10 0 OOOO__________ jtwc_wp WP072006 16.3000 122.500 TD 30 1000 -1 1006 100 40 16.2000 122.200 2 1002 0 0 0 16.2000 122.200 1 29 1000 16.3000 122.700 TD 25 998 11 303
2006209N13130 2006 39 WP MM PRAPIROON 2006-07-31 09:00:00 TS 16.4564 121.880 main 0 0 PPPP__________ WP072006 16.4875 121.987 TD 30 1000 -1 1006 100 37 16.4446 121.680 2 1002 0 0 16.4521 121.680 1 29 1000 16.4263 122.468 TD 25 998 10 290
2006209N13130 2006 39 WP MM PRAPIROON 2006-07-31 12:00:00 TS 16.5800 121.340 1002 tokyo main 0 0 OOOO__________ jtwc_wp WP072006 16.6000 121.400 TD 30 1000 -1 1006 100 35 16.6000 121.100 2 1002 0 0 0 16.6000 121.100 1 29 1000 16.5000 121.900 TD 25 998 13 278
2006209N13130 2006 39 WP MM PRAPIROON 2006-07-31 15:00:00 TS 16.6368 120.586 main 0 0 PPPP__________ WP072006 16.7573 120.815 TD 30 1000 -1 1006 100 35 16.6803 120.357 2 1002 0 0 16.6153 120.350 1 29 1000 16.4943 120.822 TD 27 997 15 274
2006209N13130 2006 39 WP MM PRAPIROON 2006-07-31 18:00:00 TS 16.6750 119.775 1002 tokyo main 44 44 OOOO__________ jtwc_wp WP072006 16.9000 120.200 TD 30 1000 -1 1006 100 35 16.7000 119.600 2 1002 0 0 0 16.6000 119.600 1 29 1000 16.5000 119.700 TD 30 996 14 275
2006209N13130 2006 39 WP MM PRAPIROON 2006-07-31 21:00:00 TS 16.7471 119.137 main 87 87 PPPP__________ WP072006 16.9999 119.557 TD 35 997 0 20 20 20 20 1005 92 27 16.6849 118.940 2 1001 0 0 16.6772 118.998 1 29 1000 16.6266 119.053 TD 30 996 11 279
2006209N13130 2006 39 WP MM PRAPIROON 2006-08-01 00:00:00 TS 16.8500 118.600 1000 tokyo main 144 139 OOOO__________ jtwc_wp WP072006 17.1000 118.900 TS 40 994 0 40 40 40 40 1004 85 20 16.7000 118.400 2 1000 0 0 0 16.8000 118.500 1 29 1000 16.8000 118.600 TD 30 996 10 284
2006209N13130 2006 39 WP MM PRAPIROON 2006-08-01 03:00:00 TS 16.9829 118.126 main 197 197 PPPP__________ WP072006 17.2424 118.235 TS 42 992 0 45 45 47 45 1004 97 20 16.8121 118.035 2 999 0 0 16.9347 118.092 1 31 997 16.9422 118.142 TD 32 994 9 289
2006209N13130 2006 39 WP MM PRAPIROON 2006-08-01 06:00:00 TS 17.1500 117.675 35 998 tokyo main 245 245 OOOO__________ jtwc_wp WP072006 17.4000 117.600 TS 45 991 0 50 50 55 50 1004 110 20 17.0000 117.700 3 35 998 0 9 110 110 0 17.1000 117.700 2 34 995 17.1000 117.700 TS 35 992 10 292
2006209N13130 2006 39 WP MM PRAPIROON 2006-08-01 09:00:00 TS 17.3632 117.150 main 312 312 PPPP__________ WP072006 17.5574 117.013 TS 45 991 0 52 52 60 52 1004 130 20 17.2727 117.200 3 37 996 0 9 120 120 17.3151 117.200 2 39 992 17.3076 117.185 TS 40 990 11 292
2006209N13130 2006 39 WP MM PRAPIROON 2006-08-01 12:00:00 TS 17.5500 116.650 40 994 tokyo main 360 356 OOOO__________ jtwc_wp WP072006 17.7000 116.500 TS 45 991 0 55 55 65 55 1004 150 20 17.5000 116.700 3 40 994 0 9 130 130 0 17.5000 116.700 2 44 990 17.5000 116.700 TS 45 988 9 286
2006209N13130 2006 39 WP MM PRAPIROON 2006-08-01 15:00:00 TS 17.6086 116.247 main 409 409 PPPP__________ WP072006 17.7924 116.055 TS 50 987 0 62 65 70 62 10 10 10 10 1004 175 20 17.4923 116.334 3 45 989 0 9 140 140 17.5424 116.277 2 46 990 17.6073 116.320 TS 47 986 7 280
2006209N13130 2006 39 WP MM PRAPIROON 2006-08-01 18:00:00 TS 17.6750 115.900 50 985 tokyo main 443 443 OOOO__________ jtwc_wp WP072006 17.9000 115.700 TS 55 984 0 70 75 75 70 20 20 20 20 1005 200 20 17.5000 116.000 4 50 985 0 9 150 150 0 17.6000 115.900 3 48 990 17.7000 116.000 STS 50 984 7 291
2006209N13130 2006 39 WP MM PRAPIROON 2006-08-01 21:00:00 TS 17.8550 115.560 main 481 481 PPPP__________ WP072006 18.0773 115.435 TS 55 984 0 80 82 92 80 30 30 35 30 1003 200 20 17.7401 115.578 4 52 982 0 9 165 165 17.7974 115.535 3 51 987 17.8049 115.692 STS 52 982 8 306
2006209N13130 2006 39 WP MM PRAPIROON 2006-08-02 00:00:00 TS 18.1250 115.250 55 980 tokyo main 481 431 OOOO__________ jtwc_wp WP072006 18.3000 115.200 TS 55 984 0 90 90 110 90 40 40 50 40 1001 200 20 18.1000 115.200 4 55 980 9 40 40 9 180 180 0 18.1000 115.200 3 54 985 18.0000 115.400 STS 55 980 8 320
2006209N13130 2006 39 WP MM PRAPIROON 2006-08-02 03:00:00 TS 18.4985 115.001 main 431 389 PPPP__________ WP072006 18.5574 114.923 TS 60 980 0 90 95 115 90 45 45 55 45 1000 200 20 18.5221 115.022 4 57 977 9 42 42 9 185 185 18.5148 114.915 3 59 980 18.3997 115.145 STS 57 977 9 324
2006209N13130 2006 39 WP MM PRAPIROON 2006-08-02 06:00:00 TS 18.8500 114.700 60 975 tokyo main 379 342 OOOO__________ jtwc_wp WP072006 18.8000 114.600 TY 65 976 1 90 100 120 90 50 50 60 50 1000 200 20 18.9000 114.800 4 60 975 9 45 45 9 190 190 0 18.9000 114.600 4 64 975 18.8000 114.800 STS 60 975 9 305
2006209N13130 2006 39 WP MM PRAPIROON 2006-08-02 09:00:00 TS 19.0379 114.194 main 342 288 PPPP__________ WP072006 18.9576 114.200 TY 65 976 1 100 105 125 100 55 55 65 55 1000 205 22 19.1030 114.258 4 62 972 9 47 47 9 195 185 19.1027 114.150 4 64 975 18.9882 114.170 STS 62 972 10 288
2006209N13130 2006 39 WP MM PRAPIROON 2006-08-02 12:00:00 TS 19.1500 113.700 65 970 tokyo main 286 255 OOOO__________ jtwc_wp WP072006 19.1000 113.800 TY 65 976 1 110 110 130 110 60 60 70 60 1000 210 25 19.2000 113.700 5 65 970 9 50 50 2 200 180 0 19.2000 113.700 4 64 975 19.1000 113.600 T 65 970 8 284
2006209N13130 2006 39 WP MM PRAPIROON 2006-08-02 15:00:00 TS 19.2248 113.425 main 255 231 PPPP__________ WP072006 19.2699 113.470 TY 65 976 1 110 115 125 110 60 60 65 60 1001 215 25 19.2122 113.397 5 65 970 9 55 55 2 200 165 19.2124 113.362 4 64 975 19.2045 113.469 T 65 970 5 297
2006209N13130 2006 39 WP MM PRAPIROON 2006-08-02 18:00:00 TS 19.3750 113.225 65 970 tokyo main 231 209 OOOO__________ jtwc_wp WP072006 19.5000 113.200 TY 65 976 1 110 120 120 110 60 60 60 60 1002 220 25 19.3000 113.200 5 65 970 9 60 60 2 200 150 0 19.3000 113.100 4 64 975 19.4000 113.400 T 65 970 7 321
2006209N13130 2006 39 WP MM PRAPIROON 2006-08-02 21:00:00 TS 19.7375 112.977 main 209 172 PPPP__________ WP072006 19.8349 112.992 TY 67 974 1 115 120 120 107 62 62 62 62 1001 200 17 19.6474 113.007 5 65 970 9 60 60 2 200 140 19.6474 112.892 4 64 975 19.8203 113.016 T 67 967 9 330
2006209N13130 2006 39 WP MM PRAPIROON 2006-08-03 00:00:00 TS 20.1750 112.725 65 970 tokyo main 172 135 OOOO__________ jtwc_wp WP072006 20.2000 112.800 TY 70 972 1 120 120 120 105 65 65 65 65 10 10 10 10 1000 180 10 20.1000 112.800 5 65 970 9 60 60 2 200 130 0 20.1000 112.700 4 64 975 20.3000 112.600 T 70 965 9 331
2006209N13130 2006 39 WP MM PRAPIROON 2006-08-03 03:00:00 TS 20.5524 112.495 main 124 88 PPPP__________ WP072006 20.5074 112.580 TY 70 972 1 130 120 120 105 65 62 62 65 17 17 17 17 998 170 15 20.5075 112.522 5 65 970 9 60 55 2 200 115 20.5148 112.487 4 64 975 20.6797 112.392 T 70 965 9 327
2006209N13130 2006 39 WP MM PRAPIROON 2006-08-03 06:00:00 TS 20.9000 112.225 65 970 tokyo main 88 45 OOOO__________ jtwc_wp WP072006 20.8000 112.300 TY 70 972 1 140 120 120 105 65 60 60 65 25 25 25 25 997 160 20 20.9000 112.200 5 65 970 3 60 50 2 200 100 0 20.9000 112.200 4 64 975 21.0000 112.200 T 70 965 9 320
2006209N13130 2006 39 WP MM PRAPIROON 2006-08-03 09:00:00 TS 21.2298 111.888 main 45 0 PPPP__________ WP072006 21.1073 111.952 TY 67 974 1 140 120 110 102 60 55 55 57 997 160 20 21.2947 111.895 5 62 972 3 60 40 2 200 85 21.2375 111.788 4 64 975 21.2797 111.917 T 67 967 9 310
2006209N13130 2006 39 WP MM PRAPIROON 2006-08-03 12:00:00 TS 21.5000 111.450 60 975 tokyo main 0 0 OOOO__________ jtwc_wp WP072006 21.4000 111.500 TY 65 976 1 140 120 100 100 55 50 50 50 997 160 20 21.6000 111.500 4 60 975 3 60 30 2 200 70 0 21.5000 111.300 4 64 975 21.5000 111.500 T 65 970 11 295
2006209N13130 2006 39 WP MM PRAPIROON 2006-08-03 15:00:00 TS 21.6741 110.862 main 0 0 PPPP__________ WP072006 21.6502 110.915 TY 55 983 0 140 120 100 100 27 25 25 25 21.7230 110.900 4 60 977 3 55 25 2 200 60 21.6651 110.785 4 59 980 21.6581 110.850 T 60 975 11 287
2006209N13130 2006 39 WP MM PRAPIROON 2006-08-03 18:00:00 TS 21.8250 110.275 60 980 tokyo main 0 0 OOOO__________ jtwc_wp WP072006 21.9000 110.300 TS 45 991 0 140 120 100 100 21.8000 110.300 4 60 980 3 50 20 2 200 50 0 21.8000 110.300 3 54 985 21.8000 110.200 STS 55 980 10 291
2006209N13130 2006 39 WP MM PRAPIROON 2006-08-03 21:00:00 TS 22.0291 109.846 main 0 0 PPPP__________ WP072006 22.1924 109.755 TS 45 991 0 140 120 100 100 21.9622 109.905 4 55 982 3 2 190 45 21.9848 109.927 3 46 990 21.9771 109.797 STS 50 984 8 302
2006209N13130 2006 39 WP MM PRAPIROON 2006-08-04 00:00:00 TS 22.2750 109.500 50 985 tokyo main 0 0 OOOO__________ jtwc_wp WP072006 22.5000 109.300 TS 45 991 0 140 120 100 100 22.2000 109.600 4 50 985 0 2 180 40 0 22.2000 109.600 2 38 995 22.2000 109.500 TS 45 988 8 311
2006209N13130 2006 39 WP MM PRAPIROON 2006-08-04 03:00:00 TS 22.5692 109.182 main 0 0 PPPP__________ WP072006 22.7996 108.985 TS 40 994 0 140 120 100 100 22.5424 109.293 4 47 987 0 2 165 35 22.4424 109.250 2 36 995 22.4924 109.200 TS 40 990 8 316
2006209N13130 2006 39 WP MM PRAPIROON 2006-08-04 06:00:00 TS 22.8800 108.873 45 990 tokyo main 0 0 OOOO__________ jtwc_wp WP072006 23.1000 108.700 TS 35 997 0 140 120 100 100 22.9000 109.000 3 45 990 0 2 150 30 0 22.7000 108.900 2 34 995 22.8000 108.900 TS 35 992 9 314
2006209N13130 2006 39 WP MM PRAPIROON 2006-08-04 09:00:00 TS 23.1586 108.517 main 0 0 PPPP__________ WP072006 23.4227 108.285 TS 32 998 -1 23.1649 108.707 3 42 992 0 2 125 25 22.9350 108.535 2 31 996 23.0652 108.563 TS 30 995 8 310
2006209N13130 2006 39 WP MM PRAPIROON 2006-08-04 12:00:00 TS 23.4231 108.169 40 994 tokyo main 0 0 OOOO__________ jtwc_wp WP072006 23.7000 107.900 TD 30 1000 -1 23.4000 108.400 3 40 994 0 2 100 20 0 23.2000 108.200 1 29 998 23.3000 108.200 TD 25 998 8 314
2006209N13130 2006 39 WP MM PRAPIROON 2006-08-04 15:00:00 TS 23.7107 107.892 main 0 0 PPP___________ WP072006 23.8723 107.670 TD 30 1000 -1 23.6800 108.058 3 37 995 0 2 75 15 23.5798 107.950 1 26 998 TD 7 316
2006209N13130 2006 39 WP MM PRAPIROON 2006-08-04 18:00:00 TS 23.9273 107.645 35 996 tokyo main 0 0 OOO___________ jtwc_wp WP072006 24.0000 107.500 TD 30 1000 -1 23.9000 107.700 3 35 996 0 2 50 10 0 23.9000 107.700 1 23 998 6 302
2006209N13130 2006 39 WP MM PRAPIROON 2006-08-04 21:00:00 TS 24.0306 107.330 main 0 0 PPP___________ WP072006 24.1426 107.310 TD 27 1001 -1 23.9950 107.327 3 997 0 2 24.0101 107.342 1 23 998 6 281
2006209N13130 2006 39 WP MM PRAPIROON 2006-08-05 00:00:00 TS 24.0429 107.014 998 tokyo main 0 0 OOO___________ jtwc_wp WP072006 24.3000 107.100 TD 25 1002 -1 24.0000 107.000 2 998 0 0 0 24.0000 107.000 1 23 998 5 262
2006209N13130 2006 39 WP MM PRAPIROON 2006-08-05 03:00:00 TS 23.9574 106.768 main 0 0 _PP___________ WP072006 TD -1 23.9600 106.770 2 1000 0 0 23.9549 106.765 1 23 999 4 249
2006209N13130 2006 39 WP MM PRAPIROON 2006-08-05 06:00:00 TS 23.9000 106.600 1002 tokyo main 0 _OO___________ 23.9000 106.600 2 1002 0 0 0 23.9000 106.600 1 23 1000 3 249

デジタル台風データ・検索

IBTrACS Databaseについて

本データベースは、米国NOAAが公開する1842年以降の世界の熱帯低気圧のベストトラックデータアーカイブInternational Best Track Archive for Climate Stewardship (IBTrACS)を、ウェブで閲覧しやすい形式に変換したものです。

最終更新日:2021-12-03